EDDB

Berlin-Schönefeld International Airport

Berlin, Germany
METAR EDDB 231350Z 05010KT CAVOK M01/M12 Q1026 NOSIG
Observed Flight Rules
Feb-23 @ 13:50 UTC (32 minutes ago) Visual Flight Rules
Wind Visibility Clouds
50° at 10 knots 10,000+ meters
  • Clear skies
Temperatures Readings
Current -1°C / 30°F
Dewpoint -12°C / 10°F
Humidity 43%
Altimeter 30.3" Hg
Pressure 1026 hPa
Elevation 48
METAR EDDB 231350Z 05010KT CAVOK M01/M12 Q1026 NOSIG
Observed Flight Rules
Feb-23 @ 13:50 UTC
(32 minutes ago)
VFR
Wind Visibility
50° at 10 knots 10,000+ meters
Clouds
  • Clear skies
Temperature Dewpoint
-1°C / 30°F -12°C / 10°F
Humidity Altimeter Pressure
43% 30.3" Hg 1026 hPa